sensor_id;sensor_type;location;lat;lon;timestamp;pressure;altitude;pressure_sealevel;temperature;humidity
5146;BME280;2591;48.144;15.152;2023-07-08T00:00:13;75540.03;;;-144.65;93.89
5146;BME280;2591;48.144;15.152;2023-07-08T00:02:42;75542.06;;;-144.65;92.86
5146;BME280;2591;48.144;15.152;2023-07-08T00:05:12;75544.09;;;-144.65;93.65
5146;BME280;2591;48.144;15.152;2023-07-08T00:07:41;75542.06;;;-144.65;92.62
5146;BME280;2591;48.144;15.152;2023-07-08T00:10:15;75540.03;;;-144.65;92.67
5146;BME280;2591;48.144;15.152;2023-07-08T00:12:44;75544.09;;;-144.65;92.69
5146;BME280;2591;48.144;15.152;2023-07-08T00:15:14;75544.09;;;-144.65;92.93
5146;BME280;2591;48.144;15.152;2023-07-08T00:17:43;75540.03;;;-144.65;93.96
5146;BME280;2591;48.144;15.152;2023-07-08T00:20:13;75537.97;;;-144.65;94.45
5146;BME280;2591;48.144;15.152;2023-07-08T00:22:44;75535.94;;;-144.65;93.76
5146;BME280;2591;48.144;15.152;2023-07-08T00:25:14;75542.06;;;-144.65;94.27
5146;BME280;2591;48.144;15.152;2023-07-08T00:27:42;75552.25;;;-144.65;93.51
5146;BME280;2591;48.144;15.152;2023-07-08T00:30:22;75548.19;;;-144.65;93.26
5146;BME280;2591;48.144;15.152;2023-07-08T00:32:51;75552.25;;;-144.65;93.50
5146;BME280;2591;48.144;15.152;2023-07-08T00:35:24;75552.25;;;-144.65;94.40
5146;BME280;2591;48.144;15.152;2023-07-08T00:37:53;75560.41;;;-144.65;94.60
5146;BME280;2591;48.144;15.152;2023-07-08T00:40:29;75564.47;;;-144.65;95.04
5146;BME280;2591;48.144;15.152;2023-07-08T00:42:59;75564.47;;;-144.65;95.40
5146;BME280;2591;48.144;15.152;2023-07-08T00:45:37;75572.63;;;-144.65;95.13
5146;BME280;2591;48.144;15.152;2023-07-08T00:48:24;75584.88;;;-144.65;95.81
5146;BME280;2591;48.144;15.152;2023-07-08T00:50:53;75588.94;;;-144.65;96.84
5146;BME280;2591;48.144;15.152;2023-07-08T00:53:23;75588.94;;;-144.65;96.34
5146;BME280;2591;48.144;15.152;2023-07-08T00:55:52;75591.00;;;-144.65;96.40
5146;BME280;2591;48.144;15.152;2023-07-08T00:58:23;75605.25;;;-144.65;96.67
5146;BME280;2591;48.144;15.152;2023-07-08T01:00:55;75613.41;;;-144.65;99.46
5146;BME280;2591;48.144;15.152;2023-07-08T01:03:25;75615.44;;;-144.65;99.51
5146;BME280;2591;48.144;15.152;2023-07-08T01:05:56;75609.34;;;-144.65;98.92
5146;BME280;2591;48.144;15.152;2023-07-08T01:08:27;75607.28;;;-144.65;99.31
5146;BME280;2591;48.144;15.152;2023-07-08T01:11:00;75605.25;;;-144.65;99.29
5146;BME280;2591;48.144;15.152;2023-07-08T01:13:33;75605.25;;;-144.65;99.71
5146;BME280;2591;48.144;15.152;2023-07-08T01:16:05;75603.22;;;-144.65;100.00
5146;BME280;2591;48.144;15.152;2023-07-08T01:18:34;75603.22;;;-144.65;100.00
5146;BME280;2591;48.144;15.152;2023-07-08T01:21:04;75617.50;;;-144.65;100.00
5146;BME280;2591;48.144;15.152;2023-07-08T01:23:35;75621.56;;;-144.65;100.00
5146;BME280;2591;48.144;15.152;2023-07-08T01:26:04;75617.50;;;-144.65;100.00
5146;BME280;2591;48.144;15.152;2023-07-08T01:28:32;75617.50;;;-144.65;100.00
5146;BME280;2591;48.144;15.152;2023-07-08T01:31:00;75623.59;;;-144.65;100.00
5146;BME280;2591;48.144;15.152;2023-07-08T01:33:31;75625.63;;;-144.65;100.00
5146;BME280;2591;48.144;15.152;2023-07-08T01:36:01;75637.88;;;-144.65;100.00
5146;BME280;2591;48.144;15.152;2023-07-08T01:38:29;75635.84;;;-144.65;100.00
5146;BME280;2591;48.144;15.152;2023-07-08T01:40:58;75641.94;;;-144.65;100.00
5146;BME280;2591;48.144;15.152;2023-07-08T01:43:26;75644.00;;;-144.65;100.00
5146;BME280;2591;48.144;15.152;2023-07-08T01:45:57;75650.09;;;-144.65;100.00
5146;BME280;2591;48.144;15.152;2023-07-08T01:48:31;75652.13;;;-144.65;100.00
5146;BME280;2591;48.144;15.152;2023-07-08T01:51:04;75656.22;;;-144.65;100.00
5146;BME280;2591;48.144;15.152;2023-07-08T01:53:34;75654.19;;;-144.65;100.00
5146;BME280;2591;48.144;15.152;2023-07-08T01:56:05;75654.19;;;-144.65;100.00
5146;BME280;2591;48.144;15.152;2023-07-08T01:58:34;75658.25;;;-144.65;100.00
5146;BME280;2591;48.144;15.152;2023-07-08T02:01:02;75666.41;;;-144.65;100.00
5146;BME280;2591;48.144;15.152;2023-07-08T02:03:31;75670.50;;;-144.65;100.00
5146;BME280;2591;48.144;15.152;2023-07-08T02:05:59;75670.50;;;-144.65;100.00
5146;BME280;2591;48.144;15.152;2023-07-08T02:08:27;75662.34;;;-144.65;100.00
5146;BME280;2591;48.144;15.152;2023-07-08T02:10:56;75664.38;;;-144.65;100.00
5146;BME280;2591;48.144;15.152;2023-07-08T02:13:26;75670.50;;;-144.65;100.00
5146;BME280;2591;48.144;15.152;2023-07-08T02:15:54;75674.56;;;-144.65;100.00
5146;BME280;2591;48.144;15.152;2023-07-08T02:18:22;75670.50;;;-144.65;100.00
5146;BME280;2591;48.144;15.152;2023-07-08T02:20:52;75678.63;;;-144.65;100.00
5146;BME280;2591;48.144;15.152;2023-07-08T02:23:19;75680.69;;;-144.65;100.00
5146;BME280;2591;48.144;15.152;2023-07-08T02:25:51;75686.78;;;-144.65;100.00
5146;BME280;2591;48.144;15.152;2023-07-08T02:28:19;75680.69;;;-144.65;100.00
5146;BME280;2591;48.144;15.152;2023-07-08T02:30:49;75684.75;;;-144.65;100.00
5146;BME280;2591;48.144;15.152;2023-07-08T02:33:17;75686.78;;;-144.65;100.00
5146;BME280;2591;48.144;15.152;2023-07-08T02:35:45;75690.88;;;-144.65;100.00
5146;BME280;2591;48.144;15.152;2023-07-08T02:38:13;75694.94;;;-144.65;100.00
5146;BME280;2591;48.144;15.152;2023-07-08T02:40:40;75699.03;;;-144.65;100.00
5146;BME280;2591;48.144;15.152;2023-07-08T02:43:08;75707.19;;;-144.65;100.00
5146;BME280;2591;48.144;15.152;2023-07-08T02:45:36;75707.19;;;-144.65;100.00
5146;BME280;2591;48.144;15.152;2023-07-08T02:48:05;75713.28;;;-144.65;100.00
5146;BME280;2591;48.144;15.152;2023-07-08T02:50:34;75707.19;;;-144.65;100.00
5146;BME280;2591;48.144;15.152;2023-07-08T02:53:01;75707.19;;;-144.65;100.00
5146;BME280;2591;48.144;15.152;2023-07-08T02:55:29;75715.34;;;-144.65;100.00
5146;BME280;2591;48.144;15.152;2023-07-08T02:57:57;75715.34;;;-144.65;100.00
5146;BME280;2591;48.144;15.152;2023-07-08T03:00:25;75721.44;;;-144.65;100.00
5146;BME280;2591;48.144;15.152;2023-07-08T03:02:53;75719.41;;;-144.65;100.00
5146;BME280;2591;48.144;15.152;2023-07-08T03:05:22;75723.50;;;-144.65;100.00
5146;BME280;2591;48.144;15.152;2023-07-08T03:07:50;75719.41;;;-144.65;100.00
5146;BME280;2591;48.144;15.152;2023-07-08T03:10:18;75713.28;;;-144.65;100.00
5146;BME280;2591;48.144;15.152;2023-07-08T03:12:46;75723.50;;;-144.65;100.00
5146;BME280;2591;48.144;15.152;2023-07-08T03:15:14;75721.44;;;-144.65;100.00
5146;BME280;2591;48.144;15.152;2023-07-08T03:17:42;75727.56;;;-144.65;100.00
5146;BME280;2591;48.144;15.152;2023-07-08T03:20:11;75733.69;;;-144.65;100.00
5146;BME280;2591;48.144;15.152;2023-07-08T03:22:40;75735.72;;;-144.65;100.00
5146;BME280;2591;48.144;15.152;2023-07-08T03:25:08;75727.56;;;-144.65;100.00
5146;BME280;2591;48.144;15.152;2023-07-08T03:27:37;75731.66;;;-144.65;100.00
5146;BME280;2591;48.144;15.152;2023-07-08T03:30:07;75723.50;;;-144.65;100.00
5146;BME280;2591;48.144;15.152;2023-07-08T03:32:35;75727.56;;;-144.65;100.00
5146;BME280;2591;48.144;15.152;2023-07-08T03:35:03;75727.56;;;-144.65;100.00
5146;BME280;2591;48.144;15.152;2023-07-08T03:37:31;75725.53;;;-144.65;100.00
5146;BME280;2591;48.144;15.152;2023-07-08T03:40:01;75719.41;;;-144.65;100.00
5146;BME280;2591;48.144;15.152;2023-07-08T03:42:30;75723.50;;;-144.65;100.00
5146;BME280;2591;48.144;15.152;2023-07-08T03:44:58;75719.41;;;-144.65;100.00
5146;BME280;2591;48.144;15.152;2023-07-08T03:47:26;75711.25;;;-144.65;100.00
5146;BME280;2591;48.144;15.152;2023-07-08T03:49:54;75703.09;;;-144.65;100.00
5146;BME280;2591;48.144;15.152;2023-07-08T03:52:21;75694.94;;;-144.65;100.00
5146;BME280;2591;48.144;15.152;2023-07-08T03:54:49;75690.88;;;-144.65;100.00
5146;BME280;2591;48.144;15.152;2023-07-08T03:57:19;75680.69;;;-144.65;100.00
5146;BME280;2591;48.144;15.152;2023-07-08T03:59:47;75676.59;;;-144.65;100.00
5146;BME280;2591;48.144;15.152;2023-07-08T04:02:15;75674.56;;;-144.65;100.00
5146;BME280;2591;48.144;15.152;2023-07-08T04:04:42;75664.38;;;-144.65;100.00
5146;BME280;2591;48.144;15.152;2023-07-08T04:07:10;75654.19;;;-144.65;100.00
5146;BME280;2591;48.144;15.152;2023-07-08T04:09:39;75650.09;;;-144.65;100.00
5146;BME280;2591;48.144;15.152;2023-07-08T04:12:10;75641.94;;;-144.65;100.00
5146;BME280;2591;48.144;15.152;2023-07-08T04:14:39;75635.84;;;-144.65;100.00
5146;BME280;2591;48.144;15.152;2023-07-08T04:17:10;75629.72;;;-144.65;100.00
5146;BME280;2591;48.144;15.152;2023-07-08T04:19:39;75623.59;;;-144.65;100.00
5146;BME280;2591;48.144;15.152;2023-07-08T04:22:11;75623.59;;;-144.65;100.00
5146;BME280;2591;48.144;15.152;2023-07-08T04:24:39;75621.56;;;-144.65;100.00
5146;BME280;2591;48.144;15.152;2023-07-08T04:27:09;75617.50;;;-144.65;100.00
5146;BME280;2591;48.144;15.152;2023-07-08T04:29:42;75609.34;;;-144.65;100.00
5146;BME280;2591;48.144;15.152;2023-07-08T04:32:10;75597.09;;;-144.65;100.00
5146;BME280;2591;48.144;15.152;2023-07-08T04:34:38;75593.03;;;-144.65;100.00
5146;BME280;2591;48.144;15.152;2023-07-08T04:37:08;75588.94;;;-144.65;100.00
5146;BME280;2591;48.144;15.152;2023-07-08T04:39:36;75584.88;;;-144.65;100.00
5146;BME280;2591;48.144;15.152;2023-07-08T04:42:04;75580.78;;;-144.65;100.00
5146;BME280;2591;48.144;15.152;2023-07-08T04:44:32;75572.63;;;-144.65;100.00
5146;BME280;2591;48.144;15.152;2023-07-08T04:47:01;75558.38;;;-144.65;100.00
5146;BME280;2591;48.144;15.152;2023-07-08T04:49:29;75548.19;;;-144.65;100.00
5146;BME280;2591;48.144;15.152;2023-07-08T04:52:00;75535.94;;;-144.65;100.00
5146;BME280;2591;48.144;15.152;2023-07-08T04:54:28;75523.72;;;-144.65;100.00
5146;BME280;2591;48.144;15.152;2023-07-08T04:56:56;75519.63;;;-144.65;100.00
5146;BME280;2591;48.144;15.152;2023-07-08T04:59:25;75507.41;;;-144.65;99.05
5146;BME280;2591;48.144;15.152;2023-07-08T05:01:53;75495.19;;;-144.65;99.59
5146;BME280;2591;48.144;15.152;2023-07-08T05:04:22;75487.03;;;-144.65;98.29
5146;BME280;2591;48.144;15.152;2023-07-08T05:06:50;75470.72;;;-144.65;98.14
5146;BME280;2591;48.144;15.152;2023-07-08T05:09:18;75468.69;;;-144.65;97.06
5146;BME280;2591;48.144;15.152;2023-07-08T05:11:48;75448.28;;;-144.65;97.27
5146;BME280;2591;48.144;15.152;2023-07-08T05:14:17;75440.13;;;-144.65;96.12
5146;BME280;2591;48.144;15.152;2023-07-08T05:16:44;75425.88;;;-144.65;95.33
5146;BME280;2591;48.144;15.152;2023-07-08T05:19:12;75415.69;;;-144.65;94.40
5146;BME280;2591;48.144;15.152;2023-07-08T05:21:42;75395.28;;;-144.65;95.08
5146;BME280;2591;48.144;15.152;2023-07-08T05:24:11;75381.03;;;-144.65;95.46
5146;BME280;2591;48.144;15.152;2023-07-08T05:26:39;75362.69;;;-144.65;94.82
5146;BME280;2591;48.144;15.152;2023-07-08T05:29:07;75354.53;;;-144.65;91.27
5146;BME280;2591;48.144;15.152;2023-07-08T05:31:35;75340.25;;;-144.65;90.46
5146;BME280;2591;48.144;15.152;2023-07-08T05:34:14;75332.09;;;-144.65;91.78
5146;BME280;2591;48.144;15.152;2023-07-08T05:36:44;75319.88;;;-144.65;91.25
5146;BME280;2591;48.144;15.152;2023-07-08T05:39:12;75321.91;;;-144.65;88.99
5146;BME280;2591;48.144;15.152;2023-07-08T05:41:40;75299.50;;;-144.65;89.85
5146;BME280;2591;48.144;15.152;2023-07-08T05:44:08;75287.25;;;-144.65;88.24
5146;BME280;2591;48.144;15.152;2023-07-08T05:46:36;75273.00;;;-144.65;85.96
5146;BME280;2591;48.144;15.152;2023-07-08T05:49:04;75262.81;;;-144.65;85.57
5146;BME280;2591;48.144;15.152;2023-07-08T05:51:33;75246.50;;;-144.65;86.58
5146;BME280;2591;48.144;15.152;2023-07-08T05:54:03;75222.03;;;-144.65;87.69
5146;BME280;2591;48.144;15.152;2023-07-08T05:56:31;75217.97;;;-144.65;84.99
5146;BME280;2591;48.144;15.152;2023-07-08T05:58:59;75193.50;;;-144.65;84.23
5146;BME280;2591;48.144;15.152;2023-07-08T06:01:26;75173.13;;;-144.65;81.60
5146;BME280;2591;48.144;15.152;2023-07-08T06:03:55;75164.97;;;-144.65;81.04
5146;BME280;2591;48.144;15.152;2023-07-08T06:06:25;75152.75;;;-144.65;78.77
5146;BME280;2591;48.144;15.152;2023-07-08T06:08:53;75134.41;;;-144.65;76.14
5146;BME280;2591;48.144;15.152;2023-07-08T06:11:22;75124.19;;;-144.65;76.92
5146;BME280;2591;48.144;15.152;2023-07-08T06:13:50;75111.97;;;-144.65;74.48
5146;BME280;2591;48.144;15.152;2023-07-08T06:16:18;75107.91;;;-144.65;76.27
5146;BME280;2591;48.144;15.152;2023-07-08T06:19:05;75097.72;;;-144.65;75.75
5146;BME280;2591;48.144;15.152;2023-07-08T06:21:33;75087.50;;;-144.65;75.57
5146;BME280;2591;48.144;15.152;2023-07-08T06:24:01;75075.28;;;-144.65;75.69
5146;BME280;2591;48.144;15.152;2023-07-08T06:26:30;75046.75;;;-144.65;75.59
5146;BME280;2591;48.144;15.152;2023-07-08T06:28:58;75010.06;;;-144.65;73.91
5146;BME280;2591;48.144;15.152;2023-07-08T06:31:26;74983.56;;;-144.65;73.35
5146;BME280;2591;48.144;15.152;2023-07-08T06:33:54;74944.84;;;-144.65;71.28
5146;BME280;2591;48.144;15.152;2023-07-08T06:36:22;74922.44;;;-144.65;69.66
5146;BME280;2591;48.144;15.152;2023-07-08T06:38:50;74912.22;;;-144.65;69.17
5146;BME280;2591;48.144;15.152;2023-07-08T06:41:18;74908.16;;;-144.65;69.97
5146;BME280;2591;48.144;15.152;2023-07-08T06:43:47;74881.66;;;-144.65;68.50
5146;BME280;2591;48.144;15.152;2023-07-08T06:46:16;74851.09;;;-144.65;67.34
5146;BME280;2591;48.144;15.152;2023-07-08T06:48:45;74847.00;;;-144.65;67.74
5146;BME280;2591;48.144;15.152;2023-07-08T06:51:13;74834.78;;;-144.65;65.08
5146;BME280;2591;48.144;15.152;2023-07-08T06:53:41;74851.09;;;-144.65;65.61
5146;BME280;2591;48.144;15.152;2023-07-08T06:56:09;74855.16;;;-144.65;65.93
5146;BME280;2591;48.144;15.152;2023-07-08T06:58:37;74822.56;;;-144.65;64.88
5146;BME280;2591;48.144;15.152;2023-07-08T07:01:06;74806.25;;;-144.65;64.53
5146;BME280;2591;48.144;15.152;2023-07-08T07:03:34;74777.72;;;-144.65;63.89
5146;BME280;2591;48.144;15.152;2023-07-08T07:06:03;74761.41;;;-144.65;62.89
5146;BME280;2591;48.144;15.152;2023-07-08T07:08:30;74765.50;;;-144.65;63.63
5146;BME280;2591;48.144;15.152;2023-07-08T07:10:58;74751.22;;;-144.65;63.27
5146;BME280;2591;48.144;15.152;2023-07-08T07:13:27;74745.13;;;-144.65;62.43
5146;BME280;2591;48.144;15.152;2023-07-08T07:15:55;74724.75;;;-144.65;62.55
5146;BME280;2591;48.144;15.152;2023-07-08T07:18:24;74718.63;;;-144.65;63.05
5146;BME280;2591;48.144;15.152;2023-07-08T07:20:54;74700.28;;;-144.65;61.13
5146;BME280;2591;48.144;15.152;2023-07-08T07:23:22;74679.91;;;-144.65;59.71
5146;BME280;2591;48.144;15.152;2023-07-08T07:25:50;74679.91;;;-144.65;59.98
5146;BME280;2591;48.144;15.152;2023-07-08T07:28:18;74692.13;;;-144.65;60.88
5146;BME280;2591;48.144;15.152;2023-07-08T07:30:46;74683.97;;;-144.65;60.31
5146;BME280;2591;48.144;15.152;2023-07-08T07:33:14;74683.97;;;-144.65;60.99
5146;BME280;2591;48.144;15.152;2023-07-08T07:35:44;74688.06;;;-144.65;61.32
5146;BME280;2591;48.144;15.152;2023-07-08T07:38:14;74696.19;;;-144.65;62.74
5146;BME280;2591;48.144;15.152;2023-07-08T07:40:42;74675.81;;;-144.65;60.50
5146;BME280;2591;48.144;15.152;2023-07-08T07:43:10;74671.75;;;-144.65;60.49
5146;BME280;2591;48.144;15.152;2023-07-08T07:45:38;74675.81;;;-144.65;60.66
5146;BME280;2591;48.144;15.152;2023-07-08T07:48:06;74671.75;;;-144.65;60.39
5146;BME280;2591;48.144;15.152;2023-07-08T07:50:34;74651.38;;;-144.65;59.95
5146;BME280;2591;48.144;15.152;2023-07-08T07:53:03;74618.75;;;-144.65;59.51
5146;BME280;2591;48.144;15.152;2023-07-08T07:55:31;74592.28;;;-144.65;58.74
5146;BME280;2591;48.144;15.152;2023-07-08T07:57:59;74561.69;;;-144.65;58.55
5146;BME280;2591;48.144;15.152;2023-07-08T08:00:28;74525.03;;;-144.65;57.62
5146;BME280;2591;48.144;15.152;2023-07-08T08:02:57;74514.84;;;-144.65;57.88
5146;BME280;2591;48.144;15.152;2023-07-08T08:05:25;74492.41;;;-144.65;57.29
5146;BME280;2591;48.144;15.152;2023-07-08T08:07:52;74470.00;;;-144.65;56.53
5146;BME280;2591;48.144;15.152;2023-07-08T08:10:22;74461.84;;;-144.65;56.16
5146;BME280;2591;48.144;15.152;2023-07-08T08:12:49;74482.22;;;-144.65;56.63
5146;BME280;2591;48.144;15.152;2023-07-08T08:15:21;74484.25;;;-144.65;56.44
5146;BME280;2591;48.144;15.152;2023-07-08T08:17:49;74508.72;;;-144.65;57.56
5146;BME280;2591;48.144;15.152;2023-07-08T08:20:20;74482.22;;;-144.65;57.12
5146;BME280;2591;48.144;15.152;2023-07-08T08:22:48;74459.81;;;-144.65;56.67
5146;BME280;2591;48.144;15.152;2023-07-08T08:25:18;74447.59;;;-144.65;55.89
5146;BME280;2591;48.144;15.152;2023-07-08T08:27:47;74467.97;;;-144.65;56.51
5146;BME280;2591;48.144;15.152;2023-07-08T08:30:15;74480.19;;;-144.65;56.23
5146;BME280;2591;48.144;15.152;2023-07-08T08:32:44;74476.13;;;-144.65;57.07
5146;BME280;2591;48.144;15.152;2023-07-08T08:35:12;74476.13;;;-144.65;58.00
5146;BME280;2591;48.144;15.152;2023-07-08T08:37:40;74449.63;;;-144.65;56.33
5146;BME280;2591;48.144;15.152;2023-07-08T08:40:12;74414.97;;;-144.65;55.53
5146;BME280;2591;48.144;15.152;2023-07-08T08:42:45;74439.44;;;-144.65;57.54
5146;BME280;2591;48.144;15.152;2023-07-08T08:45:18;74414.97;;;-144.65;57.30
5146;BME280;2591;48.144;15.152;2023-07-08T08:47:49;74402.75;;;-144.65;56.72
5146;BME280;2591;48.144;15.152;2023-07-08T08:50:28;74345.69;;;-144.65;53.36
5146;BME280;2591;48.144;15.152;2023-07-08T08:52:59;74366.06;;;-144.65;55.20
5146;BME280;2591;48.144;15.152;2023-07-08T08:55:29;74345.69;;;-144.65;54.64
5146;BME280;2591;48.144;15.152;2023-07-08T08:58:08;74315.13;;;-144.65;54.43
5146;BME280;2591;48.144;15.152;2023-07-08T09:00:47;74284.56;;;-144.65;53.09
5146;BME280;2591;48.144;15.152;2023-07-08T09:03:32;74296.78;;;-144.65;54.52
5146;BME280;2591;48.144;15.152;2023-07-08T09:06:09;74243.81;;;-144.65;52.65
5146;BME280;2591;48.144;15.152;2023-07-08T09:08:38;74231.59;;;-144.65;52.87
5146;BME280;2591;48.144;15.152;2023-07-08T09:11:17;74186.75;;;-144.65;51.68
5146;BME280;2591;48.144;15.152;2023-07-08T09:13:47;74192.88;;;-144.65;50.61
5146;BME280;2591;48.144;15.152;2023-07-08T09:16:23;74198.97;;;-144.65;50.58
5146;BME280;2591;48.144;15.152;2023-07-08T09:18:59;74190.81;;;-144.65;51.11
5146;BME280;2591;48.144;15.152;2023-07-08T09:21:31;74190.81;;;-144.65;51.44
5146;BME280;2591;48.144;15.152;2023-07-08T09:24:07;74146.00;;;-144.65;50.62
5146;BME280;2591;48.144;15.152;2023-07-08T09:26:39;74119.50;;;-144.65;51.35
5146;BME280;2591;48.144;15.152;2023-07-08T09:29:09;74084.88;;;-144.65;50.33
5146;BME280;2591;48.144;15.152;2023-07-08T09:31:39;74048.19;;;-144.65;48.41
5146;BME280;2591;48.144;15.152;2023-07-08T09:34:12;74044.13;;;-144.65;49.11
5146;BME280;2591;48.144;15.152;2023-07-08T09:36:42;74009.47;;;-144.65;48.80
5146;BME280;2591;48.144;15.152;2023-07-08T09:39:11;73991.16;;;-144.65;47.54
5146;BME280;2591;48.144;15.152;2023-07-08T09:41:41;73962.63;;;-144.65;48.23
5146;BME280;2591;48.144;15.152;2023-07-08T09:44:17;73942.25;;;-144.65;47.94
5146;BME280;2591;48.144;15.152;2023-07-08T09:46:50;73925.94;;;-144.65;47.20
5146;BME280;2591;48.144;15.152;2023-07-08T09:49:24;73909.66;;;-144.65;47.30
5146;BME280;2591;48.144;15.152;2023-07-08T09:51:52;73905.56;;;-144.65;47.76
5146;BME280;2591;48.144;15.152;2023-07-08T09:54:21;73881.13;;;-144.65;45.43
5146;BME280;2591;48.144;15.152;2023-07-08T09:56:55;73864.81;;;-144.65;45.59
5146;BME280;2591;48.144;15.152;2023-07-08T09:59:29;73848.50;;;-144.65;45.68
5146;BME280;2591;48.144;15.152;2023-07-08T10:02:24;73811.84;;;-144.65;44.23
5146;BME280;2591;48.144;15.152;2023-07-08T10:04:54;73807.78;;;-144.65;44.31
5146;BME280;2591;48.144;15.152;2023-07-08T10:07:23;73811.84;;;-144.65;45.68
5146;BME280;2591;48.144;15.152;2023-07-08T10:09:53;73803.69;;;-144.65;44.78
5146;BME280;2591;48.144;15.152;2023-07-08T10:12:23;73807.78;;;-144.65;45.24
5146;BME280;2591;48.144;15.152;2023-07-08T10:14:54;73805.72;;;-144.65;44.69
5146;BME280;2591;48.144;15.152;2023-07-08T10:17:26;73807.78;;;-144.65;44.17
5146;BME280;2591;48.144;15.152;2023-07-08T10:19:54;73787.41;;;-144.65;43.28
5146;BME280;2591;48.144;15.152;2023-07-08T10:22:38;73811.84;;;-144.65;44.55
5146;BME280;2591;48.144;15.152;2023-07-08T10:25:20;73799.63;;;-144.65;43.02
5146;BME280;2591;48.144;15.152;2023-07-08T10:27:56;73801.66;;;-144.65;43.79
5146;BME280;2591;48.144;15.152;2023-07-08T10:30:30;73775.16;;;-144.65;42.61
5146;BME280;2591;48.144;15.152;2023-07-08T10:33:20;73760.91;;;-144.65;42.87
5146;BME280;2591;48.144;15.152;2023-07-08T10:36:12;73760.91;;;-144.65;44.73
5146;BME280;2591;48.144;15.152;2023-07-08T10:38:59;73714.03;;;-144.65;42.77
5146;BME280;2591;48.144;15.152;2023-07-08T10:41:38;73695.72;;;-144.65;42.03
5146;BME280;2591;48.144;15.152;2023-07-08T10:44:16;73709.97;;;-144.65;41.17
5146;BME280;2591;48.144;15.152;2023-07-08T10:46:54;73746.66;;;-144.65;42.30
5146;BME280;2591;48.144;15.152;2023-07-08T10:49:47;73754.78;;;-144.65;42.18
5146;BME280;2591;48.144;15.152;2023-07-08T10:52:33;73750.72;;;-144.65;40.52
5146;BME280;2591;48.144;15.152;2023-07-08T10:55:18;73748.69;;;-144.65;41.27
5146;BME280;2591;48.144;15.152;2023-07-08T10:58:14;73709.97;;;-144.65;39.64
5146;BME280;2591;48.144;15.152;2023-07-08T11:00:52;73742.56;;;-144.65;41.52
5146;BME280;2591;48.144;15.152;2023-07-08T11:06:44;73714.03;;;-144.65;41.54
5146;BME280;2591;48.144;15.152;2023-07-08T11:09:16;73675.34;;;-144.65;40.42
5146;BME280;2591;48.144;15.152;2023-07-08T11:11:50;73693.69;;;-144.65;40.81
5146;BME280;2591;48.144;15.152;2023-07-08T11:14:25;73657.00;;;-144.65;39.51
5146;BME280;2591;48.144;15.152;2023-07-08T11:16:58;73665.16;;;-144.65;40.84
5146;BME280;2591;48.144;15.152;2023-07-08T11:19:32;73636.63;;;-144.65;38.89
5146;BME280;2591;48.144;15.152;2023-07-08T11:22:09;73659.03;;;-144.65;40.96
5146;BME280;2591;48.144;15.152;2023-07-08T11:24:42;73618.28;;;-144.65;39.67
5146;BME280;2591;48.144;15.152;2023-07-08T11:27:16;73599.97;;;-144.65;39.89
5146;BME280;2591;48.144;15.152;2023-07-08T11:29:55;73616.25;;;-144.65;40.16
5146;BME280;2591;48.144;15.152;2023-07-08T11:32:26;73587.72;;;-144.65;39.58
5146;BME280;2591;48.144;15.152;2023-07-08T11:34:57;73559.22;;;-144.65;38.38
5146;BME280;2591;48.144;15.152;2023-07-08T11:37:29;73587.72;;;-144.65;39.33
5146;BME280;2591;48.144;15.152;2023-07-08T11:40:09;73585.69;;;-144.65;38.55
5146;BME280;2591;48.144;15.152;2023-07-08T11:42:48;73620.34;;;-144.65;38.80
5146;BME280;2591;48.144;15.152;2023-07-08T11:45:30;73650.88;;;-144.65;38.45
5146;BME280;2591;48.144;15.152;2023-07-08T11:48:05;73705.91;;;-144.65;38.96
5146;BME280;2591;48.144;15.152;2023-07-08T11:50:37;73744.59;;;-144.65;40.11
5146;BME280;2591;48.144;15.152;2023-07-08T11:53:09;73771.09;;;-144.65;40.79
5146;BME280;2591;48.144;15.152;2023-07-08T11:55:46;73709.97;;;-144.65;39.06
5146;BME280;2591;48.144;15.152;2023-07-08T11:58:20;73652.94;;;-144.65;38.26
5146;BME280;2591;48.144;15.152;2023-07-08T12:01:00;73652.94;;;-144.65;39.10
5146;BME280;2591;48.144;15.152;2023-07-08T12:03:34;73652.94;;;-144.65;40.18
5146;BME280;2591;48.144;15.152;2023-07-08T12:06:02;73644.78;;;-144.65;39.01
5146;BME280;2591;48.144;15.152;2023-07-08T12:08:37;73663.13;;;-144.65;39.19
5146;BME280;2591;48.144;15.152;2023-07-08T12:11:09;73685.53;;;-144.65;40.82
5146;BME280;2591;48.144;15.152;2023-07-08T12:13:38;73646.81;;;-144.65;40.19
5146;BME280;2591;48.144;15.152;2023-07-08T12:16:09;73632.56;;;-144.65;39.67
5146;BME280;2591;48.144;15.152;2023-07-08T12:18:39;73673.31;;;-144.65;40.77
5146;BME280;2591;48.144;15.152;2023-07-08T12:21:13;73709.97;;;-144.65;41.37
5146;BME280;2591;48.144;15.152;2023-07-08T12:23:46;73654.97;;;-144.65;39.14
5146;BME280;2591;48.144;15.152;2023-07-08T12:26:15;73679.41;;;-144.65;39.80
5146;BME280;2591;48.144;15.152;2023-07-08T12:28:43;73677.38;;;-144.65;40.18
5146;BME280;2591;48.144;15.152;2023-07-08T12:31:15;73681.44;;;-144.65;40.26
5146;BME280;2591;48.144;15.152;2023-07-08T12:33:45;73663.13;;;-144.65;39.52
5146;BME280;2591;48.144;15.152;2023-07-08T12:36:18;73665.16;;;-144.65;39.79
5146;BME280;2591;48.144;15.152;2023-07-08T12:38:49;73644.78;;;-144.65;38.77
5146;BME280;2591;48.144;15.152;2023-07-08T12:41:19;73667.19;;;-144.65;40.98
5146;BME280;2591;48.144;15.152;2023-07-08T12:43:49;73636.63;;;-144.65;39.12
5146;BME280;2591;48.144;15.152;2023-07-08T12:46:20;73622.38;;;-144.65;38.33
5146;BME280;2591;48.144;15.152;2023-07-08T12:48:48;73652.94;;;-144.65;39.41
5146;BME280;2591;48.144;15.152;2023-07-08T12:51:17;73652.94;;;-144.65;39.39
5146;BME280;2591;48.144;15.152;2023-07-08T12:53:49;73646.81;;;-144.65;39.67
5146;BME280;2591;48.144;15.152;2023-07-08T12:56:37;73610.16;;;-144.65;39.34
5146;BME280;2591;48.144;15.152;2023-07-08T12:59:06;73589.78;;;-144.65;39.42
5146;BME280;2591;48.144;15.152;2023-07-08T13:01:35;73538.84;;;-144.65;37.14
5146;BME280;2591;48.144;15.152;2023-07-08T13:04:06;73547.00;;;-144.65;37.80
5146;BME280;2591;48.144;15.152;2023-07-08T13:06:38;73567.34;;;-144.65;38.60
5146;BME280;2591;48.144;15.152;2023-07-08T13:09:21;73579.59;;;-144.65;39.06